sensor_id;sensor_type;location;lat;lon;timestamp;pressure;altitude;pressure_sealevel;temperature;humidity
6096;BME280;25081;42.698;23.298;2023-07-13T17:32:03;95132.36;;;33.38;34.40
6096;BME280;25081;42.698;23.298;2023-07-13T17:34:15;95133.33;;;33.17;34.54
6096;BME280;25081;42.698;23.298;2023-07-13T17:36:25;95137.80;;;33.02;36.13
6096;BME280;25081;42.698;23.298;2023-07-13T17:38:37;95130.96;;;32.86;35.93
6096;BME280;25081;42.698;23.298;2023-07-13T17:40:48;95135.84;;;32.83;36.89
6096;BME280;25081;42.698;23.298;2023-07-13T17:42:58;95142.70;;;32.54;37.95
6096;BME280;25081;42.698;23.298;2023-07-13T17:45:11;95149.48;;;32.31;38.65
6096;BME280;25081;42.698;23.298;2023-07-13T17:47:24;95153.25;;;32.07;39.38
6096;BME280;25081;42.698;23.298;2023-07-13T17:49:34;95151.05;;;31.81;40.13
6096;BME280;25081;42.698;23.298;2023-07-13T17:51:45;95151.38;;;31.64;40.39
6096;BME280;25081;42.698;23.298;2023-07-13T17:53:56;95150.13;;;31.61;40.49
6096;BME280;25081;42.698;23.298;2023-07-13T17:56:06;95151.73;;;31.62;40.43
6096;BME280;25081;42.698;23.298;2023-07-13T17:58:17;95157.75;;;31.58;40.60
6096;BME280;25081;42.698;23.298;2023-07-13T18:00:30;95163.65;;;31.51;40.81
6096;BME280;25081;42.698;23.298;2023-07-13T18:02:38;95170.18;;;31.37;40.76
6096;BME280;25081;42.698;23.298;2023-07-13T18:04:49;95166.95;;;31.34;40.47
6096;BME280;25081;42.698;23.298;2023-07-13T18:07:00;95171.80;;;31.31;40.11
6096;BME280;25081;42.698;23.298;2023-07-13T18:09:17;95167.80;;;31.29;39.94
6096;BME280;25081;42.698;23.298;2023-07-13T18:11:27;95169.48;;;31.33;39.87
6096;BME280;25081;42.698;23.298;2023-07-13T18:13:38;95174.75;;;31.39;39.59
6096;BME280;25081;42.698;23.298;2023-07-13T18:15:49;95176.22;;;31.42;39.53
6096;BME280;25081;42.698;23.298;2023-07-13T18:18:00;95182.80;;;31.38;39.71
6096;BME280;25081;42.698;23.298;2023-07-13T18:20:14;95176.43;;;31.27;40.12
6096;BME280;25081;42.698;23.298;2023-07-13T18:22:24;95176.89;;;31.23;40.53
6096;BME280;25081;42.698;23.298;2023-07-13T18:24:35;95175.75;;;31.18;40.81
6096;BME280;25081;42.698;23.298;2023-07-13T18:26:45;95189.77;;;31.13;41.25
6096;BME280;25081;42.698;23.298;2023-07-13T18:28:56;95190.04;;;31.08;41.45
6096;BME280;25081;42.698;23.298;2023-07-13T18:31:09;95191.80;;;30.94;41.98
6096;BME280;25081;42.698;23.298;2023-07-13T18:33:21;95193.89;;;30.91;42.23
6096;BME280;25081;42.698;23.298;2023-07-13T18:35:32;95196.20;;;30.83;42.52
6096;BME280;25081;42.698;23.298;2023-07-13T18:37:41;95203.67;;;30.76;42.61
6096;BME280;25081;42.698;23.298;2023-07-13T18:39:52;95201.63;;;30.73;42.76
6096;BME280;25081;42.698;23.298;2023-07-13T18:42:07;95202.07;;;30.75;42.64
6096;BME280;25081;42.698;23.298;2023-07-13T18:44:17;95203.94;;;30.65;43.14
6096;BME280;25081;42.698;23.298;2023-07-13T18:46:29;95212.90;;;30.50;43.51
6096;BME280;25081;42.698;23.298;2023-07-13T18:48:38;95211.97;;;30.40;43.77
6096;BME280;25081;42.698;23.298;2023-07-13T18:50:49;95220.70;;;30.42;43.90
6096;BME280;25081;42.698;23.298;2023-07-13T18:52:59;95228.16;;;30.35;44.36
6096;BME280;25081;42.698;23.298;2023-07-13T18:55:17;95221.49;;;30.30;44.47
6096;BME280;25081;42.698;23.298;2023-07-13T18:57:27;95228.27;;;30.27;44.32
6096;BME280;25081;42.698;23.298;2023-07-13T18:59:38;95226.91;;;30.14;44.88
6096;BME280;25081;42.698;23.298;2023-07-13T19:01:48;95234.00;;;30.09;45.27
6096;BME280;25081;42.698;23.298;2023-07-13T19:03:59;95232.17;;;30.07;44.83
6096;BME280;25081;42.698;23.298;2023-07-13T19:08:29;95223.33;;;30.02;45.02
6096;BME280;25081;42.698;23.298;2023-07-13T19:10:39;95231.11;;;29.93;45.42
6096;BME280;25081;42.698;23.298;2023-07-13T19:12:51;95230.97;;;29.90;45.33
6096;BME280;25081;42.698;23.298;2023-07-13T19:15:04;95240.84;;;29.85;45.26
6096;BME280;25081;42.698;23.298;2023-07-13T19:17:12;95231.55;;;29.77;45.91
6096;BME280;25081;42.698;23.298;2023-07-13T19:19:23;95233.61;;;29.74;46.46
6096;BME280;25081;42.698;23.298;2023-07-13T19:21:34;95234.59;;;29.57;46.94
6096;BME280;25081;42.698;23.298;2023-07-13T19:23:44;95235.72;;;29.50;47.37
6096;BME280;25081;42.698;23.298;2023-07-13T19:25:55;95236.34;;;29.41;47.55
6096;BME280;25081;42.698;23.298;2023-07-13T19:28:15;95239.75;;;29.32;47.75
6096;BME280;25081;42.698;23.298;2023-07-13T19:30:23;95247.61;;;29.21;48.11
6096;BME280;25081;42.698;23.298;2023-07-13T19:32:34;95244.48;;;29.11;48.31
6096;BME280;25081;42.698;23.298;2023-07-13T19:34:45;95252.26;;;29.08;47.96
6096;BME280;25081;42.698;23.298;2023-07-13T19:36:58;95250.34;;;28.94;48.20
6096;BME280;25081;42.698;23.298;2023-07-13T19:39:16;95255.27;;;28.95;48.13
6096;BME280;25081;42.698;23.298;2023-07-13T19:41:22;95254.61;;;28.98;47.62
6096;BME280;25081;42.698;23.298;2023-07-13T19:43:32;95255.08;;;29.00;47.67
6096;BME280;25081;42.698;23.298;2023-07-13T19:45:43;95258.85;;;29.01;47.29
6096;BME280;25081;42.698;23.298;2023-07-13T19:47:54;95257.55;;;28.93;47.67
6096;BME280;25081;42.698;23.298;2023-07-13T19:50:06;95253.30;;;28.89;47.99
6096;BME280;25081;42.698;23.298;2023-07-13T19:52:17;95254.27;;;28.85;49.10
6096;BME280;25081;42.698;23.298;2023-07-13T19:54:28;95255.52;;;28.81;48.71
6096;BME280;25081;42.698;23.298;2023-07-13T19:56:38;95255.45;;;28.69;49.05
6096;BME280;25081;42.698;23.298;2023-07-13T19:58:49;95253.05;;;28.67;49.45
6096;BME280;25081;42.698;23.298;2023-07-13T20:00:59;95263.17;;;28.61;49.15
6096;BME280;25081;42.698;23.298;2023-07-13T20:03:10;95264.47;;;28.48;49.44
6096;BME280;25081;42.698;23.298;2023-07-13T20:05:21;95262.47;;;28.43;49.54
6096;BME280;25081;42.698;23.298;2023-07-13T20:07:31;95260.00;;;28.35;49.92
6096;BME280;25081;42.698;23.298;2023-07-13T20:09:41;95262.15;;;28.30;49.98
6096;BME280;25081;42.698;23.298;2023-07-13T20:11:52;95262.73;;;28.20;49.74
6096;BME280;25081;42.698;23.298;2023-07-13T20:14:09;95256.95;;;28.13;50.07
6096;BME280;25081;42.698;23.298;2023-07-13T20:16:20;95269.96;;;28.10;49.97
6096;BME280;25081;42.698;23.298;2023-07-13T20:18:30;95265.61;;;28.09;49.53
6096;BME280;25081;42.698;23.298;2023-07-13T20:20:41;95264.84;;;28.00;50.89
6096;BME280;25081;42.698;23.298;2023-07-13T20:22:52;95259.06;;;27.93;51.04
6096;BME280;25081;42.698;23.298;2023-07-13T20:25:06;95257.95;;;27.85;50.82
6096;BME280;25081;42.698;23.298;2023-07-13T20:27:16;95259.02;;;27.78;50.81
6096;BME280;25081;42.698;23.298;2023-07-13T20:29:27;95258.33;;;27.58;51.64
6096;BME280;25081;42.698;23.298;2023-07-13T20:31:38;95254.68;;;27.36;52.08
6096;BME280;25081;42.698;23.298;2023-07-13T20:33:48;95249.44;;;27.37;51.78
6096;BME280;25081;42.698;23.298;2023-07-13T20:36:01;95255.14;;;27.47;51.02
6096;BME280;25081;42.698;23.298;2023-07-13T20:38:12;95251.42;;;27.60;50.92
6096;BME280;25081;42.698;23.298;2023-07-13T20:40:23;95255.22;;;27.53;50.33
6096;BME280;25081;42.698;23.298;2023-07-13T20:42:33;95258.99;;;27.55;51.63
6096;BME280;25081;42.698;23.298;2023-07-13T20:44:44;95256.92;;;27.52;52.57
6096;BME280;25081;42.698;23.298;2023-07-13T20:46:54;95261.19;;;27.47;52.30
6096;BME280;25081;42.698;23.298;2023-07-13T20:49:05;95254.26;;;27.41;52.00
6096;BME280;25081;42.698;23.298;2023-07-13T20:51:16;95257.41;;;27.45;52.03
6096;BME280;25081;42.698;23.298;2023-07-13T20:53:26;95254.31;;;27.55;51.80
6096;BME280;25081;42.698;23.298;2023-07-13T20:55:36;95255.39;;;27.39;53.34
6096;BME280;25081;42.698;23.298;2023-07-13T20:57:47;95255.17;;;27.30;53.64
6096;BME280;25081;42.698;23.298;2023-07-13T20:59:57;95251.72;;;27.27;53.55
6096;BME280;25081;42.698;23.298;2023-07-13T21:02:23;95255.36;;;27.16;54.13
6096;BME280;25081;42.698;23.298;2023-07-13T21:04:33;95248.16;;;27.00;55.62
6096;BME280;25081;42.698;23.298;2023-07-13T21:06:44;95250.09;;;27.00;55.77
6096;BME280;25081;42.698;23.298;2023-07-13T21:08:55;95256.70;;;26.99;55.32
6096;BME280;25081;42.698;23.298;2023-07-13T21:11:05;95250.91;;;26.92;55.97
6096;BME280;25081;42.698;23.298;2023-07-13T21:13:16;95252.54;;;26.93;56.31
6096;BME280;25081;42.698;23.298;2023-07-13T21:15:27;95258.88;;;26.91;56.54
6096;BME280;25081;42.698;23.298;2023-07-13T21:17:37;95274.81;;;26.89;56.81
6096;BME280;25081;42.698;23.298;2023-07-13T21:19:48;95270.47;;;26.88;56.53
6096;BME280;25081;42.698;23.298;2023-07-13T21:21:58;95277.30;;;26.79;56.81
6096;BME280;25081;42.698;23.298;2023-07-13T21:24:09;95265.16;;;26.65;57.51
6096;BME280;25081;42.698;23.298;2023-07-13T21:26:20;95266.42;;;26.59;57.81
6096;BME280;25081;42.698;23.298;2023-07-13T21:28:32;95262.48;;;26.54;58.06
6096;BME280;25081;42.698;23.298;2023-07-13T21:30:41;95268.36;;;26.59;58.08
6096;BME280;25081;42.698;23.298;2023-07-13T21:32:52;95268.92;;;26.58;58.24
6096;BME280;25081;42.698;23.298;2023-07-13T21:35:03;95275.73;;;26.49;58.43
6096;BME280;25081;42.698;23.298;2023-07-13T21:37:15;95275.82;;;26.47;58.57
6096;BME280;25081;42.698;23.298;2023-07-13T21:39:26;95275.82;;;26.47;58.83
6096;BME280;25081;42.698;23.298;2023-07-13T21:41:36;95278.30;;;26.37;58.99
6096;BME280;25081;42.698;23.298;2023-07-13T21:43:47;95276.71;;;26.25;59.46
6096;BME280;25081;42.698;23.298;2023-07-13T21:45:57;95275.83;;;26.27;59.64
6096;BME280;25081;42.698;23.298;2023-07-13T21:48:08;95279.69;;;26.26;59.82
6096;BME280;25081;42.698;23.298;2023-07-13T21:50:20;95270.92;;;26.27;60.06
6096;BME280;25081;42.698;23.298;2023-07-13T21:52:30;95276.92;;;26.17;60.48
6096;BME280;25081;42.698;23.298;2023-07-13T21:54:41;95275.28;;;26.08;60.75
6096;BME280;25081;42.698;23.298;2023-07-13T21:56:51;95270.70;;;26.06;61.08
6096;BME280;25081;42.698;23.298;2023-07-13T21:59:03;95272.31;;;26.07;60.85
6096;BME280;25081;42.698;23.298;2023-07-13T22:01:16;95270.19;;;26.04;61.04
6096;BME280;25081;42.698;23.298;2023-07-13T22:03:26;95269.63;;;26.04;61.06
6096;BME280;25081;42.698;23.298;2023-07-13T22:05:36;95266.60;;;26.06;61.23
6096;BME280;25081;42.698;23.298;2023-07-13T22:07:47;95267.41;;;26.06;61.50
6096;BME280;25081;42.698;23.298;2023-07-13T22:09:57;95272.52;;;25.99;61.57
6096;BME280;25081;42.698;23.298;2023-07-13T22:12:09;95267.66;;;25.96;61.97
6096;BME280;25081;42.698;23.298;2023-07-13T22:14:20;95261.98;;;26.04;61.99
6096;BME280;25081;42.698;23.298;2023-07-13T22:16:30;95256.52;;;26.04;62.08
6096;BME280;25081;42.698;23.298;2023-07-13T22:18:41;95251.30;;;26.05;61.92
6096;BME280;25081;42.698;23.298;2023-07-13T22:20:52;95250.09;;;26.00;61.63
6096;BME280;25081;42.698;23.298;2023-07-13T22:23:06;95236.40;;;25.91;62.56
6096;BME280;25081;42.698;23.298;2023-07-13T22:25:17;95231.17;;;25.92;61.58
6096;BME280;25081;42.698;23.298;2023-07-13T22:27:28;95225.27;;;25.99;62.00
6096;BME280;25081;42.698;23.298;2023-07-13T22:29:38;95221.72;;;25.98;62.84
6096;BME280;25081;42.698;23.298;2023-07-13T22:31:49;95217.52;;;25.92;63.13
6096;BME280;25081;42.698;23.298;2023-07-13T22:33:59;95220.38;;;25.78;63.27
6096;BME280;25081;42.698;23.298;2023-07-13T22:36:10;95223.79;;;25.73;63.66
6096;BME280;25081;42.698;23.298;2023-07-13T22:38:21;95226.77;;;25.74;63.90
6096;BME280;25081;42.698;23.298;2023-07-13T22:40:31;95229.94;;;25.78;64.11
6096;BME280;25081;42.698;23.298;2023-07-13T22:42:42;95223.41;;;25.65;64.21
6096;BME280;25081;42.698;23.298;2023-07-13T22:44:54;95226.77;;;25.62;64.74
6096;BME280;25081;42.698;23.298;2023-07-13T22:47:04;95225.48;;;25.60;64.52
6096;BME280;25081;42.698;23.298;2023-07-13T22:49:18;95229.53;;;25.51;64.48
6096;BME280;25081;42.698;23.298;2023-07-13T22:51:28;95233.75;;;25.46;64.35
6096;BME280;25081;42.698;23.298;2023-07-13T22:53:39;95233.75;;;25.46;65.42
6096;BME280;25081;42.698;23.298;2023-07-13T22:55:49;95232.67;;;25.56;64.65
6096;BME280;25081;42.698;23.298;2023-07-13T22:58:00;95228.48;;;25.50;65.02
6096;BME280;25081;42.698;23.298;2023-07-13T23:00:18;95233.58;;;25.43;64.79
6096;BME280;25081;42.698;23.298;2023-07-13T23:02:28;95222.48;;;25.39;64.83
6096;BME280;25081;42.698;23.298;2023-07-13T23:04:39;95224.22;;;25.35;65.24
6096;BME280;25081;42.698;23.298;2023-07-13T23:06:49;95213.38;;;25.32;65.69
6096;BME280;25081;42.698;23.298;2023-07-13T23:09:00;95216.17;;;25.30;65.15
6096;BME280;25081;42.698;23.298;2023-07-13T23:11:11;95215.78;;;25.34;65.03
6096;BME280;25081;42.698;23.298;2023-07-13T23:13:21;95216.83;;;25.35;65.92
6096;BME280;25081;42.698;23.298;2023-07-13T23:15:32;95212.20;;;25.25;66.45
6096;BME280;25081;42.698;23.298;2023-07-13T23:17:42;95205.66;;;25.03;67.07
6096;BME280;25081;42.698;23.298;2023-07-13T23:19:53;95203.82;;;24.88;67.66
6096;BME280;25081;42.698;23.298;2023-07-13T23:22:05;95194.02;;;24.98;67.74
6096;BME280;25081;42.698;23.298;2023-07-13T23:24:15;95189.84;;;25.03;67.22
6096;BME280;25081;42.698;23.298;2023-07-13T23:26:26;95191.68;;;24.94;67.41
6096;BME280;25081;42.698;23.298;2023-07-13T23:28:37;95194.97;;;24.93;67.61
6096;BME280;25081;42.698;23.298;2023-07-13T23:30:48;95188.50;;;24.89;67.36
6096;BME280;25081;42.698;23.298;2023-07-13T23:32:59;95186.23;;;24.82;67.74
6096;BME280;25081;42.698;23.298;2023-07-13T23:35:11;95186.86;;;24.91;67.88
6096;BME280;25081;42.698;23.298;2023-07-13T23:37:22;95176.19;;;24.92;67.91
6096;BME280;25081;42.698;23.298;2023-07-13T23:39:32;95172.83;;;24.95;67.44
6096;BME280;25081;42.698;23.298;2023-07-13T23:41:43;95170.48;;;24.91;67.54
6096;BME280;25081;42.698;23.298;2023-07-13T23:43:53;95177.91;;;24.76;68.25
6096;BME280;25081;42.698;23.298;2023-07-13T23:46:05;95177.29;;;24.68;68.46
6096;BME280;25081;42.698;23.298;2023-07-13T23:48:16;95180.89;;;24.55;68.83
6096;BME280;25081;42.698;23.298;2023-07-13T23:50:27;95175.47;;;24.41;69.01
6096;BME280;25081;42.698;23.298;2023-07-13T23:52:37;95172.70;;;24.33;69.15
6096;BME280;25081;42.698;23.298;2023-07-13T23:54:47;95169.59;;;24.37;68.96
6096;BME280;25081;42.698;23.298;2023-07-13T23:56:59;95167.98;;;24.36;68.98
6096;BME280;25081;42.698;23.298;2023-07-13T23:59:09;95164.95;;;24.37;69.04
